sensor_id;sensor_type;location;lat;lon;timestamp;P1;durP1;ratioP1;P2;durP2;ratioP2
3443;SDS011;1736;52.068;6.968;2024-02-23T00:00:52;1.95;;;1.38;;
3443;SDS011;1736;52.068;6.968;2024-02-23T00:03:18;1.27;;;1.00;;
3443;SDS011;1736;52.068;6.968;2024-02-23T00:05:45;1.30;;;1.00;;
3443;SDS011;1736;52.068;6.968;2024-02-23T00:08:11;1.02;;;0.90;;
3443;SDS011;1736;52.068;6.968;2024-02-23T00:10:38;0.93;;;0.77;;
3443;SDS011;1736;52.068;6.968;2024-02-23T00:13:06;0.73;;;0.73;;
3443;SDS011;1736;52.068;6.968;2024-02-23T00:15:32;1.48;;;1.20;;
3443;SDS011;1736;52.068;6.968;2024-02-23T00:17:59;1.10;;;0.90;;
3443;SDS011;1736;52.068;6.968;2024-02-23T00:20:28;1.10;;;1.00;;
3443;SDS011;1736;52.068;6.968;2024-02-23T00:22:55;1.20;;;1.10;;
3443;SDS011;1736;52.068;6.968;2024-02-23T00:25:21;1.30;;;1.20;;
3443;SDS011;1736;52.068;6.968;2024-02-23T00:27:49;1.50;;;1.50;;
3443;SDS011;1736;52.068;6.968;2024-02-23T00:30:17;1.40;;;1.40;;
3443;SDS011;1736;52.068;6.968;2024-02-23T00:32:44;1.60;;;1.50;;
3443;SDS011;1736;52.068;6.968;2024-02-23T00:35:10;1.58;;;1.48;;
3443;SDS011;1736;52.068;6.968;2024-02-23T00:37:37;1.50;;;1.40;;
3443;SDS011;1736;52.068;6.968;2024-02-23T00:40:04;1.60;;;1.50;;
3443;SDS011;1736;52.068;6.968;2024-02-23T00:42:31;1.60;;;1.50;;
3443;SDS011;1736;52.068;6.968;2024-02-23T00:44:58;1.67;;;1.58;;
3443;SDS011;1736;52.068;6.968;2024-02-23T00:47:26;1.40;;;1.30;;
3443;SDS011;1736;52.068;6.968;2024-02-23T00:49:53;1.75;;;1.50;;
3443;SDS011;1736;52.068;6.968;2024-02-23T00:52:19;1.60;;;1.50;;
3443;SDS011;1736;52.068;6.968;2024-02-23T00:54:46;2.00;;;1.90;;
3443;SDS011;1736;52.068;6.968;2024-02-23T00:57:12;2.20;;;2.00;;
3443;SDS011;1736;52.068;6.968;2024-02-23T00:59:39;2.00;;;1.80;;
3443;SDS011;1736;52.068;6.968;2024-02-23T01:02:05;4.17;;;2.20;;
3443;SDS011;1736;52.068;6.968;2024-02-23T01:04:33;2.20;;;2.10;;
3443;SDS011;1736;52.068;6.968;2024-02-23T01:07:00;2.08;;;1.90;;
3443;SDS011;1736;52.068;6.968;2024-02-23T01:09:26;3.72;;;1.95;;
3443;SDS011;1736;52.068;6.968;2024-02-23T01:11:53;1.95;;;1.85;;
3443;SDS011;1736;52.068;6.968;2024-02-23T01:14:20;1.90;;;1.80;;
3443;SDS011;1736;52.068;6.968;2024-02-23T01:16:46;2.58;;;1.80;;
3443;SDS011;1736;52.068;6.968;2024-02-23T01:19:13;2.13;;;2.03;;
3443;SDS011;1736;52.068;6.968;2024-02-23T01:21:42;3.20;;;2.00;;
3443;SDS011;1736;52.068;6.968;2024-02-23T01:24:08;2.60;;;2.40;;
3443;SDS011;1736;52.068;6.968;2024-02-23T01:26:35;2.13;;;2.00;;
3443;SDS011;1736;52.068;6.968;2024-02-23T01:29:02;3.50;;;2.38;;
3443;SDS011;1736;52.068;6.968;2024-02-23T01:31:29;2.60;;;2.40;;
3443;SDS011;1736;52.068;6.968;2024-02-23T01:33:55;2.80;;;2.60;;
3443;SDS011;1736;52.068;6.968;2024-02-23T01:36:22;3.22;;;2.35;;
3443;SDS011;1736;52.068;6.968;2024-02-23T01:38:50;2.90;;;2.70;;
3443;SDS011;1736;52.068;6.968;2024-02-23T01:41:16;4.03;;;3.00;;
3443;SDS011;1736;52.068;6.968;2024-02-23T01:43:43;3.73;;;3.10;;
3443;SDS011;1736;52.068;6.968;2024-02-23T01:46:10;4.07;;;3.67;;
3443;SDS011;1736;52.068;6.968;2024-02-23T01:48:36;6.35;;;4.00;;
3443;SDS011;1736;52.068;6.968;2024-02-23T01:51:03;5.72;;;4.50;;
3443;SDS011;1736;52.068;6.968;2024-02-23T01:53:30;5.40;;;4.53;;
3443;SDS011;1736;52.068;6.968;2024-02-23T01:55:58;4.82;;;4.35;;
3443;SDS011;1736;52.068;6.968;2024-02-23T01:58:27;5.73;;;4.80;;
3443;SDS011;1736;52.068;6.968;2024-02-23T02:00:54;6.55;;;4.90;;
3443;SDS011;1736;52.068;6.968;2024-02-23T02:03:21;5.88;;;5.20;;
3443;SDS011;1736;52.068;6.968;2024-02-23T02:05:47;8.77;;;4.90;;
3443;SDS011;1736;52.068;6.968;2024-02-23T02:08:15;6.78;;;5.10;;
3443;SDS011;1736;52.068;6.968;2024-02-23T02:10:42;5.57;;;4.22;;
3443;SDS011;1736;52.068;6.968;2024-02-23T02:13:11;5.80;;;4.53;;
3443;SDS011;1736;52.068;6.968;2024-02-23T02:15:38;5.45;;;4.20;;
3443;SDS011;1736;52.068;6.968;2024-02-23T02:18:05;4.70;;;4.28;;
3443;SDS011;1736;52.068;6.968;2024-02-23T02:20:32;6.20;;;4.40;;
3443;SDS011;1736;52.068;6.968;2024-02-23T02:22:59;5.88;;;4.03;;
3443;SDS011;1736;52.068;6.968;2024-02-23T02:25:25;4.90;;;3.78;;
3443;SDS011;1736;52.068;6.968;2024-02-23T02:27:52;3.78;;;3.30;;
3443;SDS011;1736;52.068;6.968;2024-02-23T02:30:20;6.15;;;3.92;;
3443;SDS011;1736;52.068;6.968;2024-02-23T02:32:46;5.30;;;4.03;;
3443;SDS011;1736;52.068;6.968;2024-02-23T02:35:13;3.70;;;3.38;;
3443;SDS011;1736;52.068;6.968;2024-02-23T02:37:39;7.03;;;3.90;;
3443;SDS011;1736;52.068;6.968;2024-02-23T02:40:07;8.70;;;3.95;;
3443;SDS011;1736;52.068;6.968;2024-02-23T02:42:34;5.95;;;2.97;;
3443;SDS011;1736;52.068;6.968;2024-02-23T02:45:00;5.32;;;2.92;;
3443;SDS011;1736;52.068;6.968;2024-02-23T02:47:29;4.82;;;3.38;;
3443;SDS011;1736;52.068;6.968;2024-02-23T02:49:55;3.97;;;2.50;;
3443;SDS011;1736;52.068;6.968;2024-02-23T02:52:22;4.37;;;2.70;;
3443;SDS011;1736;52.068;6.968;2024-02-23T02:54:49;8.50;;;2.90;;
3443;SDS011;1736;52.068;6.968;2024-02-23T02:57:15;3.75;;;2.63;;
3443;SDS011;1736;52.068;6.968;2024-02-23T02:59:42;8.80;;;2.40;;
3443;SDS011;1736;52.068;6.968;2024-02-23T03:02:09;7.10;;;2.45;;
3443;SDS011;1736;52.068;6.968;2024-02-23T03:04:37;4.25;;;2.40;;
3443;SDS011;1736;52.068;6.968;2024-02-23T03:07:04;4.63;;;2.17;;
3443;SDS011;1736;52.068;6.968;2024-02-23T03:09:30;2.60;;;1.90;;
3443;SDS011;1736;52.068;6.968;2024-02-23T03:11:57;4.28;;;2.47;;
3443;SDS011;1736;52.068;6.968;2024-02-23T03:14:23;4.28;;;2.00;;
3443;SDS011;1736;52.068;6.968;2024-02-23T03:16:50;4.82;;;2.10;;
3443;SDS011;1736;52.068;6.968;2024-02-23T03:19:16;3.80;;;2.20;;
3443;SDS011;1736;52.068;6.968;2024-02-23T03:21:48;3.35;;;1.90;;
3443;SDS011;1736;52.068;6.968;2024-02-23T03:24:15;4.13;;;2.00;;
3443;SDS011;1736;52.068;6.968;2024-02-23T03:26:42;2.63;;;1.60;;
3443;SDS011;1736;52.068;6.968;2024-02-23T03:29:08;6.13;;;2.00;;
3443;SDS011;1736;52.068;6.968;2024-02-23T03:31:35;4.90;;;2.10;;
3443;SDS011;1736;52.068;6.968;2024-02-23T03:34:02;3.70;;;2.47;;
3443;SDS011;1736;52.068;6.968;2024-02-23T03:36:29;3.38;;;2.15;;
3443;SDS011;1736;52.068;6.968;2024-02-23T03:38:56;2.97;;;2.08;;
3443;SDS011;1736;52.068;6.968;2024-02-23T03:41:23;4.00;;;1.90;;
3443;SDS011;1736;52.068;6.968;2024-02-23T03:43:50;4.10;;;2.00;;
3443;SDS011;1736;52.068;6.968;2024-02-23T03:46:16;4.03;;;2.08;;
3443;SDS011;1736;52.068;6.968;2024-02-23T03:48:43;4.22;;;2.00;;
3443;SDS011;1736;52.068;6.968;2024-02-23T03:51:10;4.85;;;2.10;;
3443;SDS011;1736;52.068;6.968;2024-02-23T03:53:37;3.08;;;1.80;;
3443;SDS011;1736;52.068;6.968;2024-02-23T03:56:05;5.78;;;1.98;;
3443;SDS011;1736;52.068;6.968;2024-02-23T03:58:32;3.58;;;2.10;;
3443;SDS011;1736;52.068;6.968;2024-02-23T04:00:58;3.83;;;2.40;;
3443;SDS011;1736;52.068;6.968;2024-02-23T04:03:25;4.20;;;2.10;;
3443;SDS011;1736;52.068;6.968;2024-02-23T04:05:51;4.43;;;2.20;;
3443;SDS011;1736;52.068;6.968;2024-02-23T04:08:18;5.57;;;2.38;;
3443;SDS011;1736;52.068;6.968;2024-02-23T04:10:44;5.20;;;2.13;;
3443;SDS011;1736;52.068;6.968;2024-02-23T04:13:12;2.10;;;1.90;;
3443;SDS011;1736;52.068;6.968;2024-02-23T04:15:39;4.17;;;2.30;;
3443;SDS011;1736;52.068;6.968;2024-02-23T04:18:06;4.28;;;2.00;;
3443;SDS011;1736;52.068;6.968;2024-02-23T04:20:32;4.97;;;2.05;;
3443;SDS011;1736;52.068;6.968;2024-02-23T04:22:59;4.30;;;2.00;;
3443;SDS011;1736;52.068;6.968;2024-02-23T04:25:26;2.40;;;1.90;;
3443;SDS011;1736;52.068;6.968;2024-02-23T04:27:52;3.47;;;2.00;;
3443;SDS011;1736;52.068;6.968;2024-02-23T04:30:20;4.93;;;2.10;;
3443;SDS011;1736;52.068;6.968;2024-02-23T04:32:47;4.07;;;2.20;;
3443;SDS011;1736;52.068;6.968;2024-02-23T04:35:13;6.30;;;2.20;;
3443;SDS011;1736;52.068;6.968;2024-02-23T04:37:42;3.33;;;1.95;;
3443;SDS011;1736;52.068;6.968;2024-02-23T04:40:09;3.87;;;2.40;;
3443;SDS011;1736;52.068;6.968;2024-02-23T04:42:37;4.82;;;2.13;;
3443;SDS011;1736;52.068;6.968;2024-02-23T04:45:04;4.18;;;1.90;;
3443;SDS011;1736;52.068;6.968;2024-02-23T04:47:32;4.72;;;2.20;;
3443;SDS011;1736;52.068;6.968;2024-02-23T04:49:59;3.20;;;2.00;;
3443;SDS011;1736;52.068;6.968;2024-02-23T04:52:28;3.38;;;2.20;;
3443;SDS011;1736;52.068;6.968;2024-02-23T04:54:55;3.35;;;2.60;;
3443;SDS011;1736;52.068;6.968;2024-02-23T04:57:21;4.97;;;2.78;;
3443;SDS011;1736;52.068;6.968;2024-02-23T04:59:48;3.08;;;2.13;;
3443;SDS011;1736;52.068;6.968;2024-02-23T05:02:14;4.75;;;2.60;;
3443;SDS011;1736;52.068;6.968;2024-02-23T05:04:42;4.85;;;2.40;;
3443;SDS011;1736;52.068;6.968;2024-02-23T05:07:09;3.05;;;2.20;;
3443;SDS011;1736;52.068;6.968;2024-02-23T05:09:35;3.85;;;2.40;;
3443;SDS011;1736;52.068;6.968;2024-02-23T05:12:03;5.20;;;2.53;;
3443;SDS011;1736;52.068;6.968;2024-02-23T05:14:30;4.07;;;2.10;;
3443;SDS011;1736;52.068;6.968;2024-02-23T05:16:56;3.78;;;2.30;;
3443;SDS011;1736;52.068;6.968;2024-02-23T05:19:23;4.93;;;2.40;;
3443;SDS011;1736;52.068;6.968;2024-02-23T05:21:50;5.78;;;2.90;;
3443;SDS011;1736;52.068;6.968;2024-02-23T05:24:17;3.10;;;2.10;;
3443;SDS011;1736;52.068;6.968;2024-02-23T05:26:43;3.88;;;2.10;;
3443;SDS011;1736;52.068;6.968;2024-02-23T05:29:10;4.00;;;1.90;;
3443;SDS011;1736;52.068;6.968;2024-02-23T05:31:44;4.13;;;1.88;;
3443;SDS011;1736;52.068;6.968;2024-02-23T05:34:12;3.70;;;1.85;;
3443;SDS011;1736;52.068;6.968;2024-02-23T05:36:39;2.97;;;2.00;;
3443;SDS011;1736;52.068;6.968;2024-02-23T05:39:06;4.43;;;2.00;;
3443;SDS011;1736;52.068;6.968;2024-02-23T05:41:34;7.05;;;2.15;;
3443;SDS011;1736;52.068;6.968;2024-02-23T05:44:01;4.90;;;2.00;;
3443;SDS011;1736;52.068;6.968;2024-02-23T05:46:29;4.00;;;2.10;;
3443;SDS011;1736;52.068;6.968;2024-02-23T05:48:55;6.20;;;2.15;;
3443;SDS011;1736;52.068;6.968;2024-02-23T05:51:23;3.25;;;1.98;;
3443;SDS011;1736;52.068;6.968;2024-02-23T05:53:49;4.47;;;2.10;;
3443;SDS011;1736;52.068;6.968;2024-02-23T05:56:17;6.10;;;2.30;;
3443;SDS011;1736;52.068;6.968;2024-02-23T05:58:43;6.55;;;2.35;;
3443;SDS011;1736;52.068;6.968;2024-02-23T06:01:10;6.00;;;2.33;;
3443;SDS011;1736;52.068;6.968;2024-02-23T06:03:36;4.22;;;2.15;;
3443;SDS011;1736;52.068;6.968;2024-02-23T06:06:06;8.90;;;2.20;;
3443;SDS011;1736;52.068;6.968;2024-02-23T06:08:33;4.97;;;2.10;;
3443;SDS011;1736;52.068;6.968;2024-02-23T06:10:59;5.25;;;2.10;;
3443;SDS011;1736;52.068;6.968;2024-02-23T06:13:27;5.45;;;2.00;;
3443;SDS011;1736;52.068;6.968;2024-02-23T06:15:54;5.88;;;2.20;;
3443;SDS011;1736;52.068;6.968;2024-02-23T06:18:21;5.87;;;2.00;;
3443;SDS011;1736;52.068;6.968;2024-02-23T06:20:47;4.25;;;2.00;;
3443;SDS011;1736;52.068;6.968;2024-02-23T06:23:15;5.30;;;1.60;;
3443;SDS011;1736;52.068;6.968;2024-02-23T06:25:42;4.55;;;2.13;;
3443;SDS011;1736;52.068;6.968;2024-02-23T06:28:09;5.63;;;2.25;;
3443;SDS011;1736;52.068;6.968;2024-02-23T06:30:37;4.20;;;2.10;;
3443;SDS011;1736;52.068;6.968;2024-02-23T06:33:03;6.00;;;1.90;;
3443;SDS011;1736;52.068;6.968;2024-02-23T06:35:30;8.20;;;2.00;;
3443;SDS011;1736;52.068;6.968;2024-02-23T06:37:57;5.20;;;2.00;;
3443;SDS011;1736;52.068;6.968;2024-02-23T06:40:24;6.00;;;2.00;;
3443;SDS011;1736;52.068;6.968;2024-02-23T06:42:50;4.35;;;2.00;;
3443;SDS011;1736;52.068;6.968;2024-02-23T06:45:17;5.35;;;1.92;;
3443;SDS011;1736;52.068;6.968;2024-02-23T06:47:45;4.75;;;2.28;;
3443;SDS011;1736;52.068;6.968;2024-02-23T06:50:12;4.30;;;1.70;;
3443;SDS011;1736;52.068;6.968;2024-02-23T06:52:38;4.60;;;2.10;;
3443;SDS011;1736;52.068;6.968;2024-02-23T06:55:05;5.38;;;2.00;;
3443;SDS011;1736;52.068;6.968;2024-02-23T06:57:33;4.50;;;2.25;;
3443;SDS011;1736;52.068;6.968;2024-02-23T07:00:02;3.22;;;2.17;;
3443;SDS011;1736;52.068;6.968;2024-02-23T07:02:29;5.30;;;2.00;;
3443;SDS011;1736;52.068;6.968;2024-02-23T07:05:01;5.07;;;2.03;;
3443;SDS011;1736;52.068;6.968;2024-02-23T07:07:29;4.80;;;1.95;;
3443;SDS011;1736;52.068;6.968;2024-02-23T07:09:58;4.25;;;2.00;;
3443;SDS011;1736;52.068;6.968;2024-02-23T07:12:24;3.45;;;1.80;;
3443;SDS011;1736;52.068;6.968;2024-02-23T07:14:52;3.13;;;1.83;;
3443;SDS011;1736;52.068;6.968;2024-02-23T07:17:18;6.00;;;2.22;;
3443;SDS011;1736;52.068;6.968;2024-02-23T07:19:45;2.97;;;2.00;;
3443;SDS011;1736;52.068;6.968;2024-02-23T07:22:13;5.65;;;1.92;;
3443;SDS011;1736;52.068;6.968;2024-02-23T07:24:41;4.00;;;1.70;;
3443;SDS011;1736;52.068;6.968;2024-02-23T07:27:08;4.23;;;2.07;;
3443;SDS011;1736;52.068;6.968;2024-02-23T07:29:35;4.05;;;1.85;;
3443;SDS011;1736;52.068;6.968;2024-02-23T07:32:01;5.03;;;2.08;;
3443;SDS011;1736;52.068;6.968;2024-02-23T07:34:28;5.53;;;1.70;;
3443;SDS011;1736;52.068;6.968;2024-02-23T07:36:55;3.55;;;1.90;;
3443;SDS011;1736;52.068;6.968;2024-02-23T07:39:23;5.25;;;1.92;;
3443;SDS011;1736;52.068;6.968;2024-02-23T07:41:49;4.00;;;1.80;;
3443;SDS011;1736;52.068;6.968;2024-02-23T07:44:16;4.45;;;1.90;;
3443;SDS011;1736;52.068;6.968;2024-02-23T07:46:43;4.45;;;1.85;;
3443;SDS011;1736;52.068;6.968;2024-02-23T07:49:09;6.97;;;2.13;;
3443;SDS011;1736;52.068;6.968;2024-02-23T07:51:36;3.58;;;1.85;;
3443;SDS011;1736;52.068;6.968;2024-02-23T07:54:02;4.20;;;1.90;;
3443;SDS011;1736;52.068;6.968;2024-02-23T07:56:31;4.85;;;1.90;;
3443;SDS011;1736;52.068;6.968;2024-02-23T07:58:58;5.10;;;2.20;;
3443;SDS011;1736;52.068;6.968;2024-02-23T08:01:24;4.95;;;2.00;;
3443;SDS011;1736;52.068;6.968;2024-02-23T08:03:51;3.30;;;1.92;;
3443;SDS011;1736;52.068;6.968;2024-02-23T08:06:17;3.35;;;1.80;;
3443;SDS011;1736;52.068;6.968;2024-02-23T08:08:44;5.27;;;1.80;;
3443;SDS011;1736;52.068;6.968;2024-02-23T08:11:10;2.90;;;1.80;;
3443;SDS011;1736;52.068;6.968;2024-02-23T08:13:39;3.35;;;1.77;;
3443;SDS011;1736;52.068;6.968;2024-02-23T08:16:06;5.18;;;1.95;;
3443;SDS011;1736;52.068;6.968;2024-02-23T08:18:33;3.80;;;1.98;;
3443;SDS011;1736;52.068;6.968;2024-02-23T08:20:59;4.90;;;1.70;;
3443;SDS011;1736;52.068;6.968;2024-02-23T08:23:28;4.80;;;1.90;;
3443;SDS011;1736;52.068;6.968;2024-02-23T08:25:54;5.10;;;1.88;;
3443;SDS011;1736;52.068;6.968;2024-02-23T08:28:21;4.88;;;2.00;;
3443;SDS011;1736;52.068;6.968;2024-02-23T08:30:49;4.68;;;1.88;;
3443;SDS011;1736;52.068;6.968;2024-02-23T08:33:16;2.63;;;1.50;;
3443;SDS011;1736;52.068;6.968;2024-02-23T08:35:42;7.50;;;1.90;;
3443;SDS011;1736;52.068;6.968;2024-02-23T08:38:10;3.70;;;1.80;;
3443;SDS011;1736;52.068;6.968;2024-02-23T08:40:36;3.00;;;1.63;;
3443;SDS011;1736;52.068;6.968;2024-02-23T08:43:04;2.90;;;1.70;;
3443;SDS011;1736;52.068;6.968;2024-02-23T08:45:31;4.55;;;1.95;;
3443;SDS011;1736;52.068;6.968;2024-02-23T08:47:59;3.95;;;1.70;;
3443;SDS011;1736;52.068;6.968;2024-02-23T08:50:25;4.18;;;2.08;;
3443;SDS011;1736;52.068;6.968;2024-02-23T08:52:52;5.00;;;1.77;;
3443;SDS011;1736;52.068;6.968;2024-02-23T08:55:18;2.30;;;1.60;;
3443;SDS011;1736;52.068;6.968;2024-02-23T08:57:46;3.05;;;1.60;;
3443;SDS011;1736;52.068;6.968;2024-02-23T09:00:13;5.40;;;1.77;;
3443;SDS011;1736;52.068;6.968;2024-02-23T09:02:40;4.07;;;1.85;;
3443;SDS011;1736;52.068;6.968;2024-02-23T09:05:09;5.97;;;2.00;;
3443;SDS011;1736;52.068;6.968;2024-02-23T09:07:36;2.20;;;1.60;;
3443;SDS011;1736;52.068;6.968;2024-02-23T09:10:02;3.70;;;1.70;;
3443;SDS011;1736;52.068;6.968;2024-02-23T09:12:30;2.90;;;1.60;;
3443;SDS011;1736;52.068;6.968;2024-02-23T09:14:56;5.05;;;1.80;;
3443;SDS011;1736;52.068;6.968;2024-02-23T09:17:23;2.33;;;1.50;;
3443;SDS011;1736;52.068;6.968;2024-02-23T09:19:50;2.38;;;1.40;;
3443;SDS011;1736;52.068;6.968;2024-02-23T09:22:18;7.55;;;3.08;;
3443;SDS011;1736;52.068;6.968;2024-02-23T09:24:45;6.15;;;3.80;;
3443;SDS011;1736;52.068;6.968;2024-02-23T09:27:11;3.92;;;2.60;;
3443;SDS011;1736;52.068;6.968;2024-02-23T09:29:40;4.93;;;1.90;;
3443;SDS011;1736;52.068;6.968;2024-02-23T09:32:07;5.05;;;2.40;;
3443;SDS011;1736;52.068;6.968;2024-02-23T09:34:33;5.15;;;2.47;;
3443;SDS011;1736;52.068;6.968;2024-02-23T09:37:00;3.85;;;2.70;;
3443;SDS011;1736;52.068;6.968;2024-02-23T09:39:28;3.85;;;2.60;;
3443;SDS011;1736;52.068;6.968;2024-02-23T09:41:55;5.90;;;4.00;;
3443;SDS011;1736;52.068;6.968;2024-02-23T09:44:22;5.10;;;2.10;;
3443;SDS011;1736;52.068;6.968;2024-02-23T09:46:48;6.45;;;2.70;;
3443;SDS011;1736;52.068;6.968;2024-02-23T09:49:15;5.28;;;2.72;;
3443;SDS011;1736;52.068;6.968;2024-02-23T09:51:42;3.42;;;2.72;;
3443;SDS011;1736;52.068;6.968;2024-02-23T09:54:09;5.10;;;1.80;;
3443;SDS011;1736;52.068;6.968;2024-02-23T09:56:37;2.78;;;2.17;;
3443;SDS011;1736;52.068;6.968;2024-02-23T09:59:05;3.30;;;1.90;;
3443;SDS011;1736;52.068;6.968;2024-02-23T10:01:32;5.00;;;2.60;;
3443;SDS011;1736;52.068;6.968;2024-02-23T10:04:00;2.97;;;1.90;;
3443;SDS011;1736;52.068;6.968;2024-02-23T10:06:29;6.20;;;2.78;;
3443;SDS011;1736;52.068;6.968;2024-02-23T10:08:56;4.73;;;3.50;;
3443;SDS011;1736;52.068;6.968;2024-02-23T10:11:23;3.75;;;1.80;;
3443;SDS011;1736;52.068;6.968;2024-02-23T10:13:51;6.43;;;2.50;;
3443;SDS011;1736;52.068;6.968;2024-02-23T10:16:18;5.90;;;2.53;;
3443;SDS011;1736;52.068;6.968;2024-02-23T10:18:46;3.50;;;2.00;;
3443;SDS011;1736;52.068;6.968;2024-02-23T10:21:13;3.00;;;2.20;;
3443;SDS011;1736;52.068;6.968;2024-02-23T10:23:40;3.92;;;1.92;;
3443;SDS011;1736;52.068;6.968;2024-02-23T10:26:06;3.63;;;2.47;;
3443;SDS011;1736;52.068;6.968;2024-02-23T10:28:34;4.30;;;2.33;;
3443;SDS011;1736;52.068;6.968;2024-02-23T10:31:02;4.40;;;2.70;;
3443;SDS011;1736;52.068;6.968;2024-02-23T10:33:29;7.68;;;2.78;;
3443;SDS011;1736;52.068;6.968;2024-02-23T10:35:57;3.70;;;2.53;;
3443;SDS011;1736;52.068;6.968;2024-02-23T10:38:23;3.20;;;2.30;;
3443;SDS011;1736;52.068;6.968;2024-02-23T10:40:52;5.40;;;2.40;;
3443;SDS011;1736;52.068;6.968;2024-02-23T10:43:22;4.07;;;2.40;;
3443;SDS011;1736;52.068;6.968;2024-02-23T10:45:56;3.80;;;3.15;;
3443;SDS011;1736;52.068;6.968;2024-02-23T10:48:26;5.20;;;1.65;;
3443;SDS011;1736;52.068;6.968;2024-02-23T10:50:54;5.70;;;1.97;;
3443;SDS011;1736;52.068;6.968;2024-02-23T10:53:22;4.57;;;2.30;;
3443;SDS011;1736;52.068;6.968;2024-02-23T10:55:50;3.85;;;2.20;;
3443;SDS011;1736;52.068;6.968;2024-02-23T10:58:22;3.95;;;2.10;;
3443;SDS011;1736;52.068;6.968;2024-02-23T11:00:48;4.60;;;2.00;;
3443;SDS011;1736;52.068;6.968;2024-02-23T11:03:15;3.78;;;2.08;;
3443;SDS011;1736;52.068;6.968;2024-02-23T11:05:48;4.65;;;1.83;;
3443;SDS011;1736;52.068;6.968;2024-02-23T11:08:17;3.85;;;1.80;;
3443;SDS011;1736;52.068;6.968;2024-02-23T11:10:48;5.07;;;1.60;;
3443;SDS011;1736;52.068;6.968;2024-02-23T11:13:16;3.15;;;1.70;;
3443;SDS011;1736;52.068;6.968;2024-02-23T11:15:42;2.00;;;1.55;;
3443;SDS011;1736;52.068;6.968;2024-02-23T11:18:21;4.47;;;1.60;;
3443;SDS011;1736;52.068;6.968;2024-02-23T11:20:54;2.88;;;1.80;;
3443;SDS011;1736;52.068;6.968;2024-02-23T11:23:21;4.20;;;2.57;;
3443;SDS011;1736;52.068;6.968;2024-02-23T11:26:06;5.65;;;3.50;;
3443;SDS011;1736;52.068;6.968;2024-02-23T11:28:33;5.65;;;4.32;;
3443;SDS011;1736;52.068;6.968;2024-02-23T11:31:11;4.75;;;3.00;;
3443;SDS011;1736;52.068;6.968;2024-02-23T11:33:38;3.70;;;2.08;;
3443;SDS011;1736;52.068;6.968;2024-02-23T11:36:06;3.35;;;1.70;;
3443;SDS011;1736;52.068;6.968;2024-02-23T11:38:34;2.60;;;1.65;;
3443;SDS011;1736;52.068;6.968;2024-02-23T11:41:01;6.00;;;1.98;;
3443;SDS011;1736;52.068;6.968;2024-02-23T11:43:28;3.95;;;1.77;;
3443;SDS011;1736;52.068;6.968;2024-02-23T11:45:55;3.92;;;1.73;;
3443;SDS011;1736;52.068;6.968;2024-02-23T11:48:22;3.40;;;1.80;;
3443;SDS011;1736;52.068;6.968;2024-02-23T11:50:49;6.05;;;1.90;;
3443;SDS011;1736;52.068;6.968;2024-02-23T11:53:18;5.63;;;2.38;;
3443;SDS011;1736;52.068;6.968;2024-02-23T11:55:46;3.08;;;2.00;;
3443;SDS011;1736;52.068;6.968;2024-02-23T11:58:15;5.10;;;3.10;;
3443;SDS011;1736;52.068;6.968;2024-02-23T12:00:41;8.40;;;2.50;;
3443;SDS011;1736;52.068;6.968;2024-02-23T12:03:08;6.00;;;2.13;;
3443;SDS011;1736;52.068;6.968;2024-02-23T12:05:35;2.22;;;1.75;;
3443;SDS011;1736;52.068;6.968;2024-02-23T12:08:01;6.37;;;2.20;;
3443;SDS011;1736;52.068;6.968;2024-02-23T12:10:29;4.47;;;2.40;;
3443;SDS011;1736;52.068;6.968;2024-02-23T12:12:56;5.90;;;2.70;;
3443;SDS011;1736;52.068;6.968;2024-02-23T12:15:24;4.10;;;2.00;;
3443;SDS011;1736;52.068;6.968;2024-02-23T12:17:51;2.50;;;2.00;;
3443;SDS011;1736;52.068;6.968;2024-02-23T12:20:17;3.90;;;2.00;;
3443;SDS011;1736;52.068;6.968;2024-02-23T12:22:46;4.70;;;2.60;;
3443;SDS011;1736;52.068;6.968;2024-02-23T12:25:13;5.20;;;2.38;;
3443;SDS011;1736;52.068;6.968;2024-02-23T12:27:41;5.65;;;2.30;;
3443;SDS011;1736;52.068;6.968;2024-02-23T12:30:12;3.72;;;2.00;;
3443;SDS011;1736;52.068;6.968;2024-02-23T12:32:39;2.97;;;1.77;;
3443;SDS011;1736;52.068;6.968;2024-02-23T12:35:06;5.70;;;2.00;;
3443;SDS011;1736;52.068;6.968;2024-02-23T12:37:34;5.25;;;2.10;;
3443;SDS011;1736;52.068;6.968;2024-02-23T12:40:01;3.58;;;2.15;;
3443;SDS011;1736;52.068;6.968;2024-02-23T12:42:28;2.20;;;2.00;;
3443;SDS011;1736;52.068;6.968;2024-02-23T12:44:56;3.05;;;1.90;;
3443;SDS011;1736;52.068;6.968;2024-02-23T12:47:22;3.58;;;1.80;;
3443;SDS011;1736;52.068;6.968;2024-02-23T12:49:49;4.70;;;2.00;;
3443;SDS011;1736;52.068;6.968;2024-02-23T12:52:15;9.60;;;3.92;;
3443;SDS011;1736;52.068;6.968;2024-02-23T12:54:42;4.38;;;2.53;;
3443;SDS011;1736;52.068;6.968;2024-02-23T12:57:08;3.33;;;1.80;;
3443;SDS011;1736;52.068;6.968;2024-02-23T12:59:34;3.75;;;1.90;;
3443;SDS011;1736;52.068;6.968;2024-02-23T13:02:02;6.43;;;2.10;;
3443;SDS011;1736;52.068;6.968;2024-02-23T13:04:29;3.40;;;1.52;;
3443;SDS011;1736;52.068;6.968;2024-02-23T13:06:55;2.83;;;1.80;;
3443;SDS011;1736;52.068;6.968;2024-02-23T13:09:23;4.28;;;1.60;;
3443;SDS011;1736;52.068;6.968;2024-02-23T13:11:50;2.72;;;1.63;;
3443;SDS011;1736;52.068;6.968;2024-02-23T13:14:16;3.40;;;1.73;;
3443;SDS011;1736;52.068;6.968;2024-02-23T13:16:43;5.63;;;1.85;;
3443;SDS011;1736;52.068;6.968;2024-02-23T13:19:11;3.85;;;1.90;;
3443;SDS011;1736;52.068;6.968;2024-02-23T13:21:37;3.72;;;1.63;;
3443;SDS011;1736;52.068;6.968;2024-02-23T13:24:04;4.50;;;2.03;;
3443;SDS011;1736;52.068;6.968;2024-02-23T13:26:31;3.05;;;1.95;;
3443;SDS011;1736;52.068;6.968;2024-02-23T13:28:57;5.55;;;2.60;;
3443;SDS011;1736;52.068;6.968;2024-02-23T13:31:24;5.85;;;3.17;;
3443;SDS011;1736;52.068;6.968;2024-02-23T13:33:50;9.30;;;4.53;;
3443;SDS011;1736;52.068;6.968;2024-02-23T13:36:18;9.35;;;4.40;;
3443;SDS011;1736;52.068;6.968;2024-02-23T13:38:45;7.22;;;5.57;;
3443;SDS011;1736;52.068;6.968;2024-02-23T13:41:11;5.05;;;3.38;;
3443;SDS011;1736;52.068;6.968;2024-02-23T13:43:38;4.05;;;2.30;;
3443;SDS011;1736;52.068;6.968;2024-02-23T13:46:05;5.10;;;3.55;;
3443;SDS011;1736;52.068;6.968;2024-02-23T13:48:32;4.68;;;3.30;;
3443;SDS011;1736;52.068;6.968;2024-02-23T13:50:58;6.13;;;2.63;;
3443;SDS011;1736;52.068;6.968;2024-02-23T13:53:29;7.65;;;4.88;;
3443;SDS011;1736;52.068;6.968;2024-02-23T13:55:56;5.23;;;2.33;;
3443;SDS011;1736;52.068;6.968;2024-02-23T13:58:23;7.30;;;3.00;;
3443;SDS011;1736;52.068;6.968;2024-02-23T14:00:49;8.20;;;3.58;;
3443;SDS011;1736;52.068;6.968;2024-02-23T14:03:17;4.80;;;3.30;;
3443;SDS011;1736;52.068;6.968;2024-02-23T14:05:43;6.85;;;3.00;;
3443;SDS011;1736;52.068;6.968;2024-02-23T14:08:11;7.88;;;2.90;;
3443;SDS011;1736;52.068;6.968;2024-02-23T14:10:39;4.88;;;2.40;;
3443;SDS011;1736;52.068;6.968;2024-02-23T14:13:07;4.80;;;3.00;;
3443;SDS011;1736;52.068;6.968;2024-02-23T14:15:34;5.40;;;3.80;;
3443;SDS011;1736;52.068;6.968;2024-02-23T14:18:00;7.47;;;4.40;;
3443;SDS011;1736;52.068;6.968;2024-02-23T14:20:27;8.63;;;5.85;;
3443;SDS011;1736;52.068;6.968;2024-02-23T14:22:54;4.80;;;3.70;;
3443;SDS011;1736;52.068;6.968;2024-02-23T14:25:20;6.60;;;4.77;;
3443;SDS011;1736;52.068;6.968;2024-02-23T14:27:49;16.05;;;11.10;;
3443;SDS011;1736;52.068;6.968;2024-02-23T14:30:16;7.05;;;4.35;;
3443;SDS011;1736;52.068;6.968;2024-02-23T14:32:43;3.88;;;3.25;;
3443;SDS011;1736;52.068;6.968;2024-02-23T14:35:09;6.77;;;4.37;;
3443;SDS011;1736;52.068;6.968;2024-02-23T14:37:36;7.82;;;6.25;;
3443;SDS011;1736;52.068;6.968;2024-02-23T14:40:02;12.17;;;9.73;;
3443;SDS011;1736;52.068;6.968;2024-02-23T14:42:30;9.45;;;5.35;;
3443;SDS011;1736;52.068;6.968;2024-02-23T14:44:58;7.50;;;4.10;;
3443;SDS011;1736;52.068;6.968;2024-02-23T14:47:24;4.55;;;3.17;;
3443;SDS011;1736;52.068;6.968;2024-02-23T14:49:51;3.25;;;2.70;;
3443;SDS011;1736;52.068;6.968;2024-02-23T14:52:17;6.00;;;2.60;;
3443;SDS011;1736;52.068;6.968;2024-02-23T14:54:44;3.70;;;2.17;;
3443;SDS011;1736;52.068;6.968;2024-02-23T14:57:10;4.63;;;2.25;;
3443;SDS011;1736;52.068;6.968;2024-02-23T14:59:37;3.60;;;2.42;;
3443;SDS011;1736;52.068;6.968;2024-02-23T15:02:12;5.10;;;1.90;;
3443;SDS011;1736;52.068;6.968;2024-02-23T15:04:45;3.78;;;2.20;;
3443;SDS011;1736;52.068;6.968;2024-02-23T15:07:12;2.92;;;1.80;;
3443;SDS011;1736;52.068;6.968;2024-02-23T15:09:38;3.38;;;2.20;;
3443;SDS011;1736;52.068;6.968;2024-02-23T15:12:05;4.32;;;2.20;;
3443;SDS011;1736;52.068;6.968;2024-02-23T15:14:32;6.95;;;2.10;;